Time;durP1;ratioP1;P1;durP2;ratioP2;P2;SDS_P1;SDS_P2;PMS_P1;PMS_P2;Temp;Humidity;BMP_temperature;BMP_pressure;BME280_temperature;BME280_humidity;BME280_pressure;Samples;Min_cycle;Max_cycle;Signal;HPM_P1;HPM_P2
2023/12/14 00:02:07;;;;;;;10.95;6.30;;;6.70;99.90;;;;;;5015237;28;20045;-53
2023/12/14 00:04:34;;;;;;;12.32;7.18;;;6.70;99.90;;;;;;5018560;28;20049;-54
2023/12/14 00:07:02;;;;;;;13.70;7.18;;;6.70;99.90;;;;;;5022197;28;20122;-54
2023/12/14 00:09:29;;;;;;;11.02;7.25;;;6.70;99.90;;;;;;5025206;28;20053;-52
2023/12/14 00:11:56;;;;;;;12.95;7.43;;;6.70;99.90;;;;;;5018991;28;20128;-52
2023/12/14 00:14:23;;;;;;;12.82;7.40;;;6.70;99.90;;;;;;5011727;28;20494;-57
2023/12/14 00:16:50;;;;;;;13.93;8.25;;;6.70;99.90;;;;;;5013273;28;20462;-53
2023/12/14 00:19:17;;;;;;;12.63;7.53;;;6.70;99.90;;;;;;5013420;28;20049;-53
2023/12/14 00:21:44;;;;;;;11.57;6.90;;;6.70;99.90;;;;;;5019996;28;20465;-55
2023/12/14 00:24:11;;;;;;;13.63;8.13;;;6.70;99.90;;;;;;5019894;28;20053;-56
2023/12/14 00:26:38;;;;;;;12.68;8.02;;;6.70;99.90;;;;;;5024299;28;20084;-52
2023/12/14 00:29:05;;;;;;;13.73;7.43;;;6.70;99.90;;;;;;5017612;28;20140;-53
2023/12/14 00:31:32;;;;;;;14.45;8.35;;;6.70;99.90;;;;;;5017347;28;20061;-50
2023/12/14 00:33:59;;;;;;;13.07;7.68;;;6.70;99.90;;;;;;5014830;28;20057;-50
2023/12/14 00:36:27;;;;;;;14.02;8.25;;;6.70;99.90;;;;;;5015360;28;20077;-51
2023/12/14 00:38:55;;;;;;;14.55;8.73;;;6.70;99.90;;;;;;5003095;28;20046;-49
2023/12/14 00:41:22;;;;;;;14.40;9.10;;;6.70;99.90;;;;;;5009601;28;20142;-52
2023/12/14 00:43:49;;;;;;;13.38;7.55;;;6.70;99.90;;;;;;5022167;28;20045;-51
2023/12/14 00:46:16;;;;;;;14.38;8.40;;;6.70;99.90;;;;;;5014857;28;20045;-56
2023/12/14 00:48:43;;;;;;;13.48;7.97;;;6.60;99.90;;;;;;5019007;28;20057;-52
2023/12/14 00:51:10;;;;;;;11.60;7.72;;;6.60;99.90;;;;;;5014871;28;20053;-53
2023/12/14 00:53:37;;;;;;;17.20;8.50;;;6.60;99.90;;;;;;5022066;28;20056;-54
2023/12/14 00:56:08;;;;;;;14.25;8.48;;;6.60;99.90;;;;;;5015578;28;20046;-52
2023/12/14 00:58:35;;;;;;;13.98;7.43;;;6.60;99.90;;;;;;5021442;28;20422;-54
2023/12/14 01:01:03;;;;;;;14.27;7.60;;;6.60;99.90;;;;;;4997947;28;20041;-55
2023/12/14 01:03:30;;;;;;;13.82;8.48;;;6.60;99.90;;;;;;5020985;28;20103;-54
2023/12/14 01:05:57;;;;;;;15.32;8.68;;;6.60;99.90;;;;;;5016273;28;20045;-56
2023/12/14 01:08:24;;;;;;;15.85;8.30;;;6.60;99.90;;;;;;5011603;28;20157;-56
2023/12/14 01:10:52;;;;;;;13.32;8.02;;;6.50;99.90;;;;;;5015375;28;20128;-51
2023/12/14 01:13:19;;;;;;;13.55;7.53;;;6.50;99.90;;;;;;5039024;28;20133;-55
2023/12/14 01:15:46;;;;;;;14.63;8.70;;;6.50;99.90;;;;;;5011449;28;20053;-51
2023/12/14 01:18:13;;;;;;;13.63;8.65;;;6.50;99.90;;;;;;5014026;28;20054;-52
2023/12/14 01:20:40;;;;;;;12.75;8.48;;;6.50;99.90;;;;;;5002408;28;20035;-53
2023/12/14 01:23:09;;;;;;;14.75;8.57;;;6.40;99.90;;;;;;5018487;28;20050;-54
2023/12/14 01:25:36;;;;;;;14.93;8.77;;;6.40;99.90;;;;;;5016264;28;20320;-51
2023/12/14 01:28:03;;;;;;;15.43;8.60;;;6.50;99.90;;;;;;5015278;28;20411;-56
2023/12/14 01:30:31;;;;;;;12.25;7.63;;;6.40;99.90;;;;;;5019637;28;20049;-54
2023/12/14 01:32:58;;;;;;;13.57;8.50;;;6.50;99.90;;;;;;5012257;28;20116;-56
2023/12/14 01:35:25;;;;;;;15.98;8.68;;;6.50;99.90;;;;;;5015489;28;20132;-57
2023/12/14 01:37:52;;;;;;;15.48;9.10;;;6.50;99.90;;;;;;5010001;28;20042;-54
2023/12/14 01:40:20;;;;;;;20.85;10.50;;;6.40;99.90;;;;;;5011102;28;20046;-56
2023/12/14 01:42:47;;;;;;;14.75;8.82;;;6.50;99.90;;;;;;5009354;28;20053;-56
2023/12/14 01:45:18;;;;;;;15.82;9.85;;;6.40;99.90;;;;;;5015042;28;20538;-50
2023/12/14 01:47:45;;;;;;;15.53;9.57;;;6.50;99.90;;;;;;5019283;28;20068;-57
2023/12/14 01:50:12;;;;;;;15.60;9.43;;;6.50;99.90;;;;;;5042339;28;20367;-50
2023/12/14 01:52:39;;;;;;;19.80;11.05;;;6.50;99.90;;;;;;5019748;28;20050;-56
2023/12/14 01:55:06;;;;;;;16.55;10.00;;;6.50;99.90;;;;;;4984483;28;20108;-50
2023/12/14 01:57:34;;;;;;;14.63;9.48;;;6.50;99.90;;;;;;5017124;28;20466;-55
2023/12/14 02:00:01;;;;;;;19.60;10.18;;;6.40;99.90;;;;;;5012889;28;20077;-57
2023/12/14 02:02:30;;;;;;;16.80;9.93;;;6.40;99.90;;;;;;5014293;28;20046;-49
2023/12/14 02:04:58;;;;;;;21.75;11.13;;;6.40;99.90;;;;;;5019000;28;20050;-54
2023/12/14 02:07:25;;;;;;;16.95;10.02;;;6.50;99.90;;;;;;5016317;28;20053;-56
2023/12/14 02:09:52;;;;;;;20.70;10.45;;;6.50;99.90;;;;;;5018524;28;20567;-58
2023/12/14 02:12:19;;;;;;;18.35;10.25;;;6.50;99.90;;;;;;5020485;28;20060;-56
2023/12/14 02:14:48;;;;;;;23.80;10.75;;;6.50;99.90;;;;;;5014086;28;20068;-53
2023/12/14 02:17:15;;;;;;;17.73;9.95;;;6.50;99.90;;;;;;5014160;28;20061;-51
2023/12/14 02:19:42;;;;;;;20.27;11.05;;;6.50;99.90;;;;;;5011975;28;20145;-52
2023/12/14 02:22:09;;;;;;;23.90;10.32;;;6.50;99.90;;;;;;5019571;28;20542;-51
2023/12/14 02:24:36;;;;;;;20.38;11.15;;;6.50;99.90;;;;;;5014332;28;20049;-55
2023/12/14 02:27:03;;;;;;;17.27;10.68;;;6.50;99.90;;;;;;5016060;28;20046;-52
2023/12/14 02:29:31;;;;;;;18.10;11.48;;;6.50;99.90;;;;;;5007995;28;20054;-54
2023/12/14 02:31:58;;;;;;;18.98;11.15;;;6.40;99.90;;;;;;5012011;28;20104;-59
2023/12/14 02:34:25;;;;;;;19.35;11.05;;;6.40;99.90;;;;;;5018910;28;20049;-58
2023/12/14 02:36:52;;;;;;;17.10;10.75;;;6.40;99.90;;;;;;5011414;28;20419;-50
2023/12/14 02:39:20;;;;;;;23.10;11.73;;;6.30;99.90;;;;;;5011347;28;20045;-54
2023/12/14 02:41:47;;;;;;;24.73;11.75;;;6.30;99.90;;;;;;5013873;28;20038;-55
2023/12/14 02:44:14;;;;;;;23.35;13.30;;;6.30;99.90;;;;;;5021541;28;20038;-51
2023/12/14 02:46:41;;;;;;;22.73;13.32;;;6.20;99.90;;;;;;5020390;28;20571;-54
2023/12/14 02:49:08;;;;;;;23.42;12.05;;;6.20;99.90;;;;;;5014142;28;20037;-54
2023/12/14 02:51:36;;;;;;;19.70;11.70;;;6.20;99.90;;;;;;5011168;28;20156;-57
2023/12/14 02:54:03;;;;;;;22.38;13.00;;;6.20;99.90;;;;;;5017126;28;20060;-52
2023/12/14 02:56:30;;;;;;;20.77;11.70;;;6.20;99.90;;;;;;5016776;28;20046;-55
2023/12/14 02:58:57;;;;;;;21.25;13.25;;;6.20;99.90;;;;;;5016038;28;20052;-54
2023/12/14 03:01:24;;;;;;;22.33;12.95;;;6.20;99.90;;;;;;5019290;28;20088;-53
2023/12/14 03:03:51;;;;;;;24.90;13.40;;;6.30;99.90;;;;;;5017842;28;20056;-57
2023/12/14 03:06:19;;;;;;;28.98;14.35;;;6.30;99.90;;;;;;5018399;28;20049;-55
2023/12/14 03:08:46;;;;;;;22.42;13.80;;;6.30;99.90;;;;;;5016857;28;20363;-56
2023/12/14 03:11:23;;;;;;;22.13;12.60;;;6.30;99.90;;;;;;5005880;28;20038;-52
2023/12/14 03:13:50;;;;;;;22.00;13.05;;;6.30;99.90;;;;;;5010958;28;20045;-57
2023/12/14 03:16:18;;;;;;;22.90;14.13;;;6.30;99.90;;;;;;5014913;28;20041;-56
2023/12/14 03:18:45;;;;;;;24.17;14.63;;;6.30;99.90;;;;;;5008460;28;20122;-50
2023/12/14 03:21:12;;;;;;;23.55;13.20;;;6.30;99.90;;;;;;5024487;28;20046;-56
2023/12/14 03:23:40;;;;;;;20.55;13.15;;;6.30;99.90;;;;;;5017651;28;20259;-56
2023/12/14 03:26:07;;;;;;;22.08;12.80;;;6.30;99.90;;;;;;5023129;28;20129;-56
2023/12/14 03:28:34;;;;;;;20.65;13.10;;;6.30;99.90;;;;;;5003147;28;20136;-56
2023/12/14 03:31:01;;;;;;;21.63;13.32;;;6.40;99.90;;;;;;5021056;28;20430;-55
2023/12/14 03:33:28;;;;;;;21.33;12.70;;;6.40;99.90;;;;;;5016409;28;20242;-53
2023/12/14 03:35:55;;;;;;;24.58;13.18;;;6.40;99.90;;;;;;5018681;28;20054;-56
2023/12/14 03:38:23;;;;;;;21.08;11.65;;;6.30;99.90;;;;;;5010441;28;20253;-57
2023/12/14 03:40:50;;;;;;;22.60;13.25;;;6.30;99.90;;;;;;5017101;28;20188;-54
2023/12/14 03:43:17;;;;;;;19.75;12.93;;;6.40;99.90;;;;;;5013971;28;20034;-58
2023/12/14 03:45:44;;;;;;;22.92;12.88;;;6.40;99.90;;;;;;5013793;28;20495;-55
2023/12/14 03:48:11;;;;;;;21.90;12.90;;;6.40;99.90;;;;;;5013204;28;20423;-54
2023/12/14 03:50:39;;;;;;;20.95;11.93;;;6.40;99.90;;;;;;5007771;28;20566;-55
2023/12/14 03:53:06;;;;;;;20.85;12.65;;;6.30;99.90;;;;;;5020358;28;20503;-53
2023/12/14 03:55:33;;;;;;;24.35;13.88;;;6.30;99.90;;;;;;5020402;28;20052;-53
2023/12/14 03:58:01;;;;;;;20.55;13.25;;;6.30;99.90;;;;;;5019571;28;20046;-52
2023/12/14 04:00:28;;;;;;;23.83;13.10;;;6.30;99.90;;;;;;5021723;28;20060;-52
2023/12/14 04:02:55;;;;;;;21.02;12.95;;;6.30;99.90;;;;;;4998626;28;20415;-53
2023/12/14 04:05:22;;;;;;;24.20;13.82;;;6.30;99.90;;;;;;5017770;28;20042;-50
2023/12/14 04:07:50;;;;;;;23.00;13.05;;;6.30;99.90;;;;;;5014210;28;20204;-51
2023/12/14 04:10:17;;;;;;;24.75;13.25;;;6.30;99.90;;;;;;5021157;28;20506;-53
2023/12/14 04:12:44;;;;;;;22.15;13.57;;;6.30;99.90;;;;;;5011956;28;20056;-58
2023/12/14 04:15:11;;;;;;;26.42;14.13;;;6.40;99.90;;;;;;5012039;28;20034;-54
2023/12/14 04:17:38;;;;;;;23.67;14.30;;;6.40;99.90;;;;;;5011972;28;20140;-56
2023/12/14 04:20:06;;;;;;;21.98;13.07;;;6.30;99.90;;;;;;5013225;28;20521;-48
2023/12/14 04:22:33;;;;;;;25.95;13.55;;;6.40;99.90;;;;;;5015822;28;20053;-51
2023/12/14 04:25:01;;;;;;;23.15;13.27;;;6.40;99.90;;;;;;5018024;28;20042;-51
2023/12/14 04:27:29;;;;;;;23.30;12.85;;;6.30;99.90;;;;;;5022370;28;20099;-54
2023/12/14 04:29:57;;;;;;;24.05;13.75;;;6.40;99.90;;;;;;5015826;28;20560;-54
2023/12/14 04:32:24;;;;;;;21.70;13.70;;;6.30;99.90;;;;;;5024492;28;20045;-59
2023/12/14 04:34:51;;;;;;;23.40;12.93;;;6.40;99.90;;;;;;5016355;28;20078;-58
2023/12/14 04:37:18;;;;;;;27.08;13.70;;;6.40;99.90;;;;;;5021367;28;20079;-56
2023/12/14 04:39:45;;;;;;;21.60;13.60;;;6.40;99.90;;;;;;5022189;28;20532;-60
2023/12/14 04:42:12;;;;;;;23.83;13.38;;;6.40;99.90;;;;;;5018486;28;20049;-53
2023/12/14 04:44:39;;;;;;;23.23;14.70;;;6.40;99.90;;;;;;5020770;28;20044;-54
2023/12/14 04:47:08;;;;;;;22.48;12.82;;;6.40;99.90;;;;;;5021676;28;20037;-59
2023/12/14 04:49:35;;;;;;;21.77;12.88;;;6.30;99.90;;;;;;5014166;28;20073;-55
2023/12/14 04:52:03;;;;;;;22.73;12.70;;;6.40;99.90;;;;;;5023005;28;20057;-59
2023/12/14 04:54:30;;;;;;;20.55;13.18;;;6.30;99.90;;;;;;5018136;28;20454;-54
2023/12/14 04:56:57;;;;;;;22.45;13.07;;;6.30;99.90;;;;;;5004113;28;20077;-56
2023/12/14 04:59:24;;;;;;;24.92;13.50;;;6.20;99.90;;;;;;5011934;28;20064;-54
2023/12/14 05:01:51;;;;;;;25.05;13.77;;;6.20;99.90;;;;;;5018519;28;20159;-54
2023/12/14 05:04:18;;;;;;;25.42;13.75;;;6.20;99.90;;;;;;5013613;28;20060;-54
2023/12/14 05:06:45;;;;;;;27.50;14.82;;;6.20;99.90;;;;;;5021060;28;20660;-54
2023/12/14 05:09:12;;;;;;;25.00;13.77;;;6.10;99.90;;;;;;5013783;28;20581;-53
2023/12/14 05:11:40;;;;;;;24.83;14.05;;;6.10;99.90;;;;;;5002084;28;20086;-52
2023/12/14 05:14:07;;;;;;;26.85;15.13;;;6.10;99.90;;;;;;5009156;28;20053;-53
2023/12/14 05:16:34;;;;;;;25.17;14.35;;;6.10;99.90;;;;;;5013691;28;20037;-53
2023/12/14 05:19:01;;;;;;;26.80;15.18;;;6.10;99.90;;;;;;5010290;28;20139;-53
2023/12/14 05:21:28;;;;;;;30.33;16.05;;;6.10;99.90;;;;;;5019435;28;20046;-52
2023/12/14 05:23:56;;;;;;;25.38;14.65;;;6.00;99.90;;;;;;5015361;28;20042;-49
2023/12/14 05:26:23;;;;;;;28.92;14.20;;;6.00;99.90;;;;;;5025295;28;20675;-52
2023/12/14 05:28:50;;;;;;;24.38;13.82;;;6.00;99.90;;;;;;5007695;28;20060;-58
2023/12/14 05:31:18;;;;;;;27.35;13.52;;;6.10;99.90;;;;;;5022220;28;20518;-58
2023/12/14 05:33:45;;;;;;;23.75;13.90;;;6.10;99.90;;;;;;5015984;28;20048;-53
2023/12/14 05:36:12;;;;;;;24.08;13.45;;;6.00;99.90;;;;;;5015113;28;20164;-55
2023/12/14 05:38:40;;;;;;;24.95;14.10;;;6.00;99.90;;;;;;5015356;28;20103;-52
2023/12/14 05:41:08;;;;;;;25.65;14.15;;;6.00;99.90;;;;;;5019693;28;20061;-51
2023/12/14 05:43:36;;;;;;;23.95;14.35;;;6.00;99.90;;;;;;5019054;28;20064;-58
2023/12/14 05:46:03;;;;;;;29.42;14.15;;;6.00;99.90;;;;;;5018265;28;20048;-51
2023/12/14 05:48:31;;;;;;;26.80;14.18;;;6.00;99.90;;;;;;5019907;28;20506;-53
2023/12/14 05:51:00;;;;;;;25.52;14.07;;;5.90;99.90;;;;;;5009277;28;20319;-53
2023/12/14 05:53:27;;;;;;;28.13;13.57;;;5.90;99.90;;;;;;5021782;28;20049;-56
2023/12/14 05:55:54;;;;;;;22.67;13.43;;;5.90;99.90;;;;;;5011006;28;20046;-53
2023/12/14 05:58:21;;;;;;;27.63;13.98;;;5.90;99.90;;;;;;5014177;28;20049;-55
2023/12/14 06:00:48;;;;;;;29.98;14.25;;;5.90;99.90;;;;;;5019968;28;20040;-56
2023/12/14 06:03:15;;;;;;;25.40;13.85;;;5.90;99.90;;;;;;5018647;28;20108;-50
2023/12/14 06:05:42;;;;;;;24.67;14.32;;;5.90;99.90;;;;;;5007645;28;20542;-56
2023/12/14 06:08:10;;;;;;;22.75;13.48;;;5.90;99.90;;;;;;5012963;28;20144;-53
2023/12/14 06:10:37;;;;;;;26.45;13.63;;;5.90;99.90;;;;;;5013943;28;20140;-56
2023/12/14 06:13:04;;;;;;;26.13;14.65;;;5.90;99.90;;;;;;5009538;28;20050;-56
2023/12/14 06:15:32;;;;;;;27.63;15.10;;;5.90;99.90;;;;;;5009083;28;20056;-56
2023/12/14 06:17:59;;;;;;;29.52;14.32;;;6.00;99.90;;;;;;5008427;28;20045;-56
2023/12/14 06:20:27;;;;;;;26.60;13.90;;;6.00;99.90;;;;;;5007853;28;20184;-56
2023/12/14 06:22:54;;;;;;;25.80;13.93;;;6.00;99.90;;;;;;5007248;28;20471;-52
2023/12/14 06:25:21;;;;;;;27.73;15.07;;;6.00;99.90;;;;;;5005929;28;20049;-51
2023/12/14 06:27:49;;;;;;;25.20;13.85;;;6.00;99.90;;;;;;5008515;28;20041;-51
2023/12/14 06:30:16;;;;;;;28.25;14.88;;;6.00;99.90;;;;;;5008725;28;20046;-52
2023/12/14 06:32:43;;;;;;;28.33;14.52;;;6.00;99.90;;;;;;5005647;28;20688;-54
2023/12/14 06:35:11;;;;;;;31.70;16.15;;;6.00;99.90;;;;;;5006811;28;20030;-50
2023/12/14 06:37:38;;;;;;;30.55;15.27;;;6.00;99.90;;;;;;5008191;28;20054;-55
2023/12/14 06:40:06;;;;;;;29.50;15.30;;;6.00;99.90;;;;;;5007671;28;20129;-56
2023/12/14 06:42:33;;;;;;;27.90;15.45;;;6.10;99.90;;;;;;5008534;28;20046;-57
2023/12/14 06:45:05;;;;;;;29.77;15.40;;;6.10;99.90;;;;;;5013232;28;20092;-57
2023/12/14 06:47:32;;;;;;;30.95;15.38;;;6.10;99.90;;;;;;5003857;28;20500;-53
2023/12/14 06:50:00;;;;;;;28.50;15.38;;;6.10;99.90;;;;;;5003417;28;20072;-50
2023/12/14 06:52:27;;;;;;;27.13;14.70;;;6.10;99.90;;;;;;5004200;28;20127;-56
2023/12/14 06:54:54;;;;;;;28.42;14.88;;;6.10;99.90;;;;;;5000172;28;20060;-54
2023/12/14 06:57:21;;;;;;;30.48;15.60;;;6.10;99.90;;;;;;5004560;28;20062;-56
2023/12/14 06:59:52;;;;;;;29.35;15.05;;;6.10;99.90;;;;;;5001541;28;20042;-52
2023/12/14 07:02:19;;;;;;;28.15;15.35;;;6.10;99.90;;;;;;5007540;28;20128;-55
2023/12/14 07:04:46;;;;;;;28.02;15.80;;;6.10;99.90;;;;;;5007495;28;20046;-55
2023/12/14 07:07:15;;;;;;;26.58;15.35;;;6.10;99.90;;;;;;5036358;28;20069;-54
2023/12/14 07:09:43;;;;;;;30.00;15.68;;;6.20;99.90;;;;;;5004823;28;20048;-55
2023/12/14 07:12:11;;;;;;;34.08;15.73;;;6.20;99.90;;;;;;5001615;28;20128;-55
2023/12/14 07:14:38;;;;;;;32.33;15.70;;;6.20;99.90;;;;;;5008507;28;20076;-53
2023/12/14 07:17:05;;;;;;;28.98;15.38;;;6.10;99.90;;;;;;5006297;28;20053;-56
2023/12/14 07:19:33;;;;;;;29.45;14.98;;;6.10;99.90;;;;;;5005201;28;20132;-58
2023/12/14 07:22:00;;;;;;;31.30;15.95;;;6.10;99.90;;;;;;4999038;28;20050;-56
2023/12/14 07:24:27;;;;;;;34.22;16.98;;;6.10;99.90;;;;;;5012045;28;20038;-55
2023/12/14 07:26:56;;;;;;;29.48;16.08;;;6.20;99.90;;;;;;5004677;28;20058;-54
2023/12/14 07:29:24;;;;;;;34.53;16.75;;;6.10;99.90;;;;;;5010792;28;20053;-51
2023/12/14 07:31:51;;;;;;;38.53;18.50;;;6.10;99.90;;;;;;5008042;28;20153;-56
2023/12/14 07:34:20;;;;;;;30.25;17.00;;;6.20;99.90;;;;;;5015851;28;20107;-54
2023/12/14 07:36:47;;;;;;;33.97;16.30;;;6.20;99.90;;;;;;5008989;28;20511;-56
2023/12/14 07:39:14;;;;;;;30.73;17.00;;;6.20;99.90;;;;;;5009993;28;20479;-57
2023/12/14 07:41:41;;;;;;;30.52;17.08;;;6.20;99.90;;;;;;5005240;28;20046;-54
2023/12/14 07:44:08;;;;;;;28.65;15.32;;;6.20;99.90;;;;;;5007464;28;20045;-55
2023/12/14 07:46:39;;;;;;;29.45;16.27;;;6.20;99.90;;;;;;5012024;28;20038;-55
2023/12/14 07:49:06;;;;;;;31.40;16.33;;;6.20;99.90;;;;;;5009550;28;20050;-54
2023/12/14 07:51:33;;;;;;;33.60;17.58;;;6.10;99.90;;;;;;5015074;28;20304;-57
2023/12/14 07:54:03;;;;;;;32.10;17.63;;;6.20;99.90;;;;;;5008791;28;20108;-57
2023/12/14 07:56:30;;;;;;;35.20;17.92;;;6.10;99.90;;;;;;5017086;28;20056;-58
2023/12/14 07:58:57;;;;;;;29.10;15.93;;;6.20;99.90;;;;;;5005390;28;20125;-53
2023/12/14 08:01:25;;;;;;;29.80;16.02;;;6.30;99.90;;;;;;5006971;28;20127;-52
2023/12/14 08:03:52;;;;;;;30.58;16.73;;;6.40;99.90;;;;;;5011716;28;20050;-55
2023/12/14 08:06:19;;;;;;;30.98;16.20;;;6.30;99.90;;;;;;5016257;28;20053;-53
2023/12/14 08:08:46;;;;;;;33.60;16.90;;;6.30;99.90;;;;;;5015406;28;20131;-56
2023/12/14 08:11:13;;;;;;;30.75;15.93;;;6.40;99.90;;;;;;5010506;28;20411;-52
2023/12/14 08:13:41;;;;;;;33.67;15.88;;;6.50;99.90;;;;;;4998879;28;20043;-55
2023/12/14 08:16:08;;;;;;;33.15;17.58;;;6.50;99.90;;;;;;5016390;28;20161;-55
2023/12/14 08:18:35;;;;;;;33.90;18.13;;;6.40;99.90;;;;;;5018519;28;20056;-51
2023/12/14 08:21:03;;;;;;;26.95;15.32;;;6.50;99.90;;;;;;5024724;28;20045;-55
2023/12/14 08:23:30;;;;;;;28.10;15.82;;;6.50;99.90;;;;;;5024937;28;20045;-53
2023/12/14 08:25:58;;;;;;;28.25;15.90;;;6.60;99.90;;;;;;5016013;28;20085;-56
2023/12/14 08:28:26;;;;;;;28.52;16.05;;;6.60;99.90;;;;;;5013753;28;20130;-53
2023/12/14 08:30:53;;;;;;;28.48;15.10;;;6.60;99.90;;;;;;5022952;28;20052;-53
2023/12/14 08:33:20;;;;;;;33.35;16.35;;;6.70;99.90;;;;;;5010127;28;20645;-56
2023/12/14 08:35:47;;;;;;;27.48;14.82;;;6.70;99.90;;;;;;5008899;28;20109;-55
2023/12/14 08:38:14;;;;;;;28.33;15.55;;;6.80;99.90;;;;;;5035665;28;20561;-53
2023/12/14 08:40:41;;;;;;;29.13;16.20;;;6.80;99.90;;;;;;5009247;28;20048;-50
2023/12/14 08:43:09;;;;;;;28.73;16.10;;;6.80;99.90;;;;;;5009476;28;20151;-54
2023/12/14 08:45:36;;;;;;;27.35;15.07;;;6.80;99.90;;;;;;5010071;28;20117;-53
2023/12/14 08:48:03;;;;;;;26.55;14.93;;;6.90;99.90;;;;;;5010353;28;20128;-52
2023/12/14 08:50:30;;;;;;;26.88;14.98;;;6.90;99.90;;;;;;5008996;28;20498;-58
2023/12/14 08:53:00;;;;;;;30.95;16.52;;;6.90;99.90;;;;;;5017254;28;20066;-53
2023/12/14 08:55:28;;;;;;;30.95;16.42;;;7.00;99.90;;;;;;5008903;28;20450;-56
2023/12/14 08:57:55;;;;;;;29.15;16.02;;;6.90;99.90;;;;;;5008119;28;20068;-56
2023/12/14 09:00:23;;;;;;;27.80;16.02;;;6.90;99.90;;;;;;5009558;28;20038;-57
2023/12/14 09:02:50;;;;;;;30.88;15.75;;;6.80;99.90;;;;;;5006824;28;20146;-53
2023/12/14 09:05:20;;;;;;;29.20;16.55;;;6.70;99.90;;;;;;5009489;28;20052;-50
2023/12/14 09:07:47;;;;;;;27.77;14.52;;;6.80;99.90;;;;;;5009176;28;20537;-54
2023/12/14 09:10:15;;;;;;;30.25;14.77;;;6.70;99.90;;;;;;5008736;28;20125;-58
2023/12/14 09:12:42;;;;;;;25.55;14.30;;;6.70;99.90;;;;;;5008198;28;20065;-56
2023/12/14 09:15:09;;;;;;;26.58;13.90;;;6.70;99.90;;;;;;5010608;28;20137;-57
2023/12/14 09:17:36;;;;;;;23.60;13.25;;;6.70;99.90;;;;;;5014110;28;20045;-52
2023/12/14 09:20:05;;;;;;;27.13;14.70;;;6.70;99.90;;;;;;5009879;28;20511;-49
2023/12/14 09:22:32;;;;;;;29.73;14.10;;;6.90;99.90;;;;;;5009503;28;20046;-55
2023/12/14 09:24:59;;;;;;;21.80;12.75;;;6.90;99.90;;;;;;5009898;28;20074;-54
2023/12/14 09:27:26;;;;;;;22.02;12.70;;;6.90;99.90;;;;;;5007543;28;20062;-55
2023/12/14 09:29:53;;;;;;;26.95;14.43;;;7.00;99.90;;;;;;5016303;28;20054;-56
2023/12/14 09:32:20;;;;;;;27.63;14.68;;;7.00;99.90;;;;;;5008651;28;20049;-55
2023/12/14 09:34:48;;;;;;;26.67;14.02;;;7.10;99.90;;;;;;5009001;28;20046;-56
2023/12/14 09:37:16;;;;;;;22.67;13.38;;;7.10;99.90;;;;;;5008703;28;20550;-56
2023/12/14 09:39:43;;;;;;;26.25;14.45;;;7.10;99.90;;;;;;5008281;28;20066;-55
2023/12/14 09:42:10;;;;;;;30.15;15.60;;;7.20;99.90;;;;;;5013088;28;20037;-52
2023/12/14 09:44:38;;;;;;;19.92;11.98;;;7.20;99.90;;;;;;5008723;28;20056;-52
2023/12/14 09:47:05;;;;;;;25.63;13.90;;;7.30;99.90;;;;;;5006775;28;20088;-55
2023/12/14 09:49:35;;;;;;;21.73;12.93;;;7.40;99.90;;;;;;5007601;28;20038;-53
2023/12/14 09:52:03;;;;;;;26.83;12.48;;;7.50;99.90;;;;;;5006854;28;20129;-54
2023/12/14 09:54:30;;;;;;;21.33;12.40;;;7.40;99.90;;;;;;5008568;28;20137;-51
2023/12/14 09:56:57;;;;;;;21.88;13.57;;;7.50;99.90;;;;;;5007482;28;20519;-52
2023/12/14 09:59:24;;;;;;;23.13;12.35;;;7.50;99.90;;;;;;5009416;28;20134;-55
2023/12/14 10:01:51;;;;;;;22.90;13.57;;;7.50;99.90;;;;;;5008087;28;20046;-55
2023/12/14 10:04:20;;;;;;;24.80;13.18;;;7.60;99.90;;;;;;5030442;28;20344;-56
2023/12/14 10:06:47;;;;;;;23.80;13.80;;;7.50;99.90;;;;;;5007251;28;20137;-54
2023/12/14 10:09:22;;;;;;;28.33;14.35;;;7.50;99.90;;;;;;5006762;28;20466;-58
2023/12/14 10:12:05;;;;;;;23.90;14.40;;;7.50;99.90;;;;;;5007422;28;20038;-55
2023/12/14 10:14:32;;;;;;;31.67;15.05;;;7.40;99.90;;;;;;5002904;28;20049;-56
2023/12/14 10:17:21;;;;;;;25.20;13.95;;;7.40;99.90;;;;;;5008907;28;20472;-53
2023/12/14 10:19:49;;;;;;;22.88;13.23;;;7.60;99.90;;;;;;5007406;28;20490;-55
2023/12/14 10:22:17;;;;;;;23.45;13.45;;;7.70;99.90;;;;;;5009291;28;20092;-53
2023/12/14 10:24:47;;;;;;;26.77;14.50;;;7.70;99.90;;;;;;5005581;28;20054;-54
2023/12/14 10:27:15;;;;;;;24.20;13.70;;;7.70;99.90;;;;;;5008682;28;20426;-57
2023/12/14 10:29:45;;;;;;;23.98;13.35;;;7.70;99.90;;;;;;5006079;28;20046;-54
2023/12/14 10:32:12;;;;;;;25.58;13.30;;;7.80;99.90;;;;;;5007645;28;20045;-57
2023/12/14 10:34:40;;;;;;;24.08;14.00;;;8.00;99.90;;;;;;5008392;28;20066;-56
2023/12/14 10:37:09;;;;;;;23.33;13.25;;;8.20;99.90;;;;;;5008054;28;20322;-56
2023/12/14 10:39:41;;;;;;;27.83;13.63;;;8.30;99.90;;;;;;5007369;28;20038;-56
2023/12/14 10:42:09;;;;;;;23.25;12.98;;;8.40;99.90;;;;;;5008671;28;20129;-53
2023/12/14 10:44:51;;;;;;;21.30;13.63;;;8.40;99.90;;;;;;5007297;28;20128;-51
2023/12/14 10:47:43;;;;;;;22.60;12.82;;;8.40;99.90;;;;;;5007949;28;20073;-52
2023/12/14 10:50:12;;;;;;;25.88;13.65;;;8.30;99.90;;;;;;5008152;28;20073;-56
2023/12/14 10:52:41;;;;;;;25.40;13.32;;;8.40;99.90;;;;;;5007406;28;20125;-57
2023/12/14 10:55:20;;;;;;;25.92;12.90;;;8.30;99.90;;;;;;5006087;28;20541;-55
2023/12/14 10:57:47;;;;;;;26.15;14.05;;;8.30;99.90;;;;;;5033314;28;20046;-56
2023/12/14 11:00:17;;;;;;;25.75;13.60;;;8.20;99.90;;;;;;5007741;28;20088;-50
2023/12/14 11:02:48;;;;;;;21.75;12.05;;;8.20;99.90;;;;;;5009532;28;20052;-55
2023/12/14 11:05:19;;;;;;;26.25;13.45;;;8.20;99.90;;;;;;4992443;28;20050;-58
2023/12/14 11:07:54;;;;;;;22.13;13.63;;;8.20;99.90;;;;;;5017653;28;20038;-50
2023/12/14 11:10:26;;;;;;;24.38;13.40;;;8.20;99.90;;;;;;5023336;28;20172;-53
2023/12/14 11:13:01;;;;;;;24.48;13.90;;;8.20;99.90;;;;;;5020854;28;20054;-53
2023/12/14 11:15:30;;;;;;;27.55;14.20;;;8.30;99.90;;;;;;5016542;28;20080;-55
2023/12/14 11:18:12;;;;;;;23.02;12.85;;;8.30;99.90;;;;;;5010880;28;20053;-51
2023/12/14 11:20:46;;;;;;;18.45;10.85;;;8.40;99.90;;;;;;5003310;28;20384;-56
2023/12/14 11:23:26;;;;;;;20.65;10.82;;;8.40;99.90;;;;;;5005286;28;20069;-55
2023/12/14 11:25:56;;;;;;;25.83;11.25;;;8.40;99.90;;;;;;5008172;28;20507;-55
2023/12/14 11:28:27;;;;;;;20.38;11.48;;;8.40;99.90;;;;;;5007434;28;20058;-56
2023/12/14 11:30:56;;;;;;;19.67;11.27;;;8.50;99.90;;;;;;5007269;28;20061;-58
2023/12/14 11:33:24;;;;;;;17.52;11.10;;;8.60;99.90;;;;;;5006588;28;20525;-55
2023/12/14 11:35:52;;;;;;;17.88;11.50;;;8.50;99.90;;;;;;5008524;28;20042;-58
2023/12/14 11:38:20;;;;;;;16.13;9.75;;;8.50;99.90;;;;;;5010789;28;20074;-57
2023/12/14 11:40:49;;;;;;;17.48;10.48;;;8.40;99.90;;;;;;5012602;28;20116;-57
2023/12/14 11:43:20;;;;;;;20.40;10.93;;;8.30;99.90;;;;;;5012132;28;20600;-57
2023/12/14 11:45:48;;;;;;;21.58;11.82;;;8.20;99.90;;;;;;5013101;28;20407;-56
2023/12/14 11:48:16;;;;;;;23.10;12.75;;;8.20;99.90;;;;;;5034944;28;20049;-56
2023/12/14 11:50:44;;;;;;;20.00;11.43;;;8.10;99.90;;;;;;5009582;28;20061;-57
2023/12/14 11:53:12;;;;;;;20.02;11.80;;;8.10;99.90;;;;;;5013064;28;20081;-58
2023/12/14 11:55:42;;;;;;;19.88;12.02;;;8.00;99.90;;;;;;4995505;28;20065;-52
2023/12/14 11:58:15;;;;;;;24.55;12.40;;;8.00;99.90;;;;;;5011224;28;20084;-53
2023/12/14 12:00:44;;;;;;;23.95;13.48;;;8.00;99.90;;;;;;5011222;28;20431;-54
2023/12/14 12:03:23;;;;;;;21.40;12.63;;;8.00;99.90;;;;;;5012106;28;20045;-54
2023/12/14 12:05:51;;;;;;;25.67;14.35;;;8.10;99.90;;;;;;5011678;28;20193;-53
2023/12/14 12:08:20;;;;;;;24.65;13.63;;;8.20;99.90;;;;;;5012084;28;20553;-56
2023/12/14 12:10:49;;;;;;;19.55;11.60;;;8.30;99.90;;;;;;5012543;28;20058;-55
2023/12/14 12:13:20;;;;;;;18.67;11.32;;;8.40;99.90;;;;;;5013216;28;20060;-54
2023/12/14 12:15:48;;;;;;;22.13;11.20;;;8.50;99.90;;;;;;5012670;28;20053;-53
2023/12/14 12:18:17;;;;;;;22.98;11.68;;;8.60;99.90;;;;;;5013519;28;20128;-59
2023/12/14 12:20:45;;;;;;;19.27;11.25;;;8.70;99.90;;;;;;5019708;28;20071;-56
2023/12/14 12:23:12;;;;;;;15.10;8.63;;;8.80;99.90;;;;;;4994602;28;20066;-56
2023/12/14 12:25:39;;;;;;;16.23;9.13;;;8.70;99.90;;;;;;5012094;28;20046;-55
2023/12/14 12:28:06;;;;;;;16.40;8.98;;;8.70;99.90;;;;;;5023096;28;20049;-56
2023/12/14 12:30:33;;;;;;;15.05;9.18;;;8.70;99.90;;;;;;5010447;28;20133;-57
2023/12/14 12:33:05;;;;;;;15.07;9.60;;;8.60;99.90;;;;;;5011342;28;20140;-57
2023/12/14 12:35:33;;;;;;;16.10;9.48;;;8.50;99.90;;;;;;5012090;28;20061;-55
2023/12/14 12:38:01;;;;;;;20.88;10.50;;;8.40;99.90;;;;;;5010210;28;20474;-54
2023/12/14 12:40:30;;;;;;;19.10;9.60;;;8.40;99.90;;;;;;5009538;28;20045;-56
2023/12/14 12:42:58;;;;;;;19.05;9.27;;;8.40;99.90;;;;;;5011446;28;20097;-57